createdAt,value
2019-01-13T00:02:09.851Z,22.67
2019-01-13T00:04:36.178Z,26.17
2019-01-13T00:07:03.178Z,27.03
2019-01-13T00:09:32.262Z,27.00
2019-01-13T00:11:58.469Z,25.83
2019-01-13T00:14:24.694Z,28.27
2019-01-13T00:16:50.927Z,29.23
2019-01-13T00:19:17.230Z,24.57
2019-01-13T00:21:43.451Z,22.70
2019-01-13T00:24:09.898Z,27.40
2019-01-13T00:26:36.584Z,26.93
2019-01-13T00:29:03.285Z,23.37
2019-01-13T00:31:29.527Z,27.57
2019-01-13T00:33:55.758Z,22.90
2019-01-13T00:36:21.970Z,22.27
2019-01-13T00:38:48.233Z,27.33
2019-01-13T00:41:14.626Z,28.20
2019-01-13T00:43:40.839Z,25.17
2019-01-13T00:46:07.258Z,23.43
2019-01-13T00:48:33.470Z,22.93
2019-01-13T00:50:59.715Z,24.40
2019-01-13T00:53:26.033Z,21.47
2019-01-13T00:55:52.552Z,18.60
2019-01-13T00:58:18.767Z,18.73
2019-01-13T01:00:44.983Z,19.43
2019-01-13T01:03:11.418Z,17.57
2019-01-13T01:05:38.035Z,17.17
2019-01-13T01:08:04.766Z,17.73
2019-01-13T01:10:30.975Z,21.00
2019-01-13T01:12:57.195Z,19.93
2019-01-13T01:15:23.603Z,18.03
2019-01-13T01:17:49.824Z,21.90
2019-01-13T01:20:16.227Z,18.37
2019-01-13T01:22:43.983Z,18.03
2019-01-13T01:25:12.724Z,18.87
2019-01-13T01:27:39.146Z,16.03
2019-01-13T01:30:09.145Z,16.73
2019-01-13T01:32:35.359Z,19.10
2019-01-13T01:35:02.223Z,19.10
2019-01-13T01:37:34.370Z,17.90
2019-01-13T01:40:00.606Z,20.23
2019-01-13T01:42:26.902Z,16.37
2019-01-13T01:44:53.144Z,21.37
2019-01-13T01:47:19.342Z,17.77
2019-01-13T01:49:45.602Z,17.13
2019-01-13T01:52:11.810Z,17.90
2019-01-13T01:54:38.055Z,17.43
2019-01-13T01:57:04.358Z,16.60
2019-01-13T01:59:30.581Z,19.97
2019-01-13T02:02:05.015Z,16.13
2019-01-13T02:04:50.183Z,16.80
2019-01-13T02:07:16.399Z,17.77
2019-01-13T02:09:42.872Z,18.07
2019-01-13T02:12:09.070Z,18.53
2019-01-13T02:14:35.294Z,15.70
2019-01-13T02:17:01.514Z,18.13
2019-01-13T02:19:27.840Z,16.20
2019-01-13T02:21:54.043Z,16.90
2019-01-13T02:24:20.267Z,21.17
2019-01-13T02:26:46.470Z,21.30
2019-01-13T02:29:12.717Z,18.50
2019-01-13T02:31:38.914Z,20.70
2019-01-13T02:34:05.114Z,19.13
2019-01-13T02:36:31.464Z,20.47
2019-01-13T02:38:57.803Z,21.43
2019-01-13T02:41:24.457Z,20.33
2019-01-13T02:43:50.679Z,19.03
2019-01-13T02:46:16.992Z,20.97
2019-01-13T02:48:43.195Z,20.80
2019-01-13T02:51:09.406Z,19.03
2019-01-13T02:53:35.622Z,20.67
2019-01-13T02:56:01.847Z,17.73
2019-01-13T02:58:28.046Z,18.10
2019-01-13T03:00:57.184Z,17.60
2019-01-13T03:03:22.504Z,14.97
2019-01-13T03:05:48.812Z,14.40
2019-01-13T03:08:15.036Z,15.50
2019-01-13T03:10:41.351Z,11.97
2019-01-13T03:13:07.567Z,11.63
2019-01-13T03:15:33.882Z,11.27
2019-01-13T03:18:00.206Z,11.07
2019-01-13T03:20:26.523Z,11.47
2019-01-13T03:22:53.099Z,10.57
2019-01-13T03:25:20.506Z,10.80
2019-01-13T03:27:47.120Z,11.57
2019-01-13T03:30:21.419Z,10.70
2019-01-13T03:32:47.828Z,10.80
2019-01-13T03:35:14.556Z,9.43
2019-01-13T03:37:40.969Z,11.20
2019-01-13T03:40:18.575Z,9.50
2019-01-13T03:42:45.583Z,9.43
2019-01-13T03:45:12.202Z,9.10
2019-01-13T03:47:38.407Z,8.97
2019-01-13T03:50:08.453Z,8.90
2019-01-13T03:52:34.751Z,8.23
2019-01-13T03:55:01.117Z,7.60
2019-01-13T03:57:27.487Z,8.00
2019-01-13T03:59:53.694Z,8.00
2019-01-13T04:02:19.927Z,7.07
2019-01-13T04:04:46.161Z,7.47
2019-01-13T04:07:12.404Z,7.30
2019-01-13T04:09:38.656Z,7.57
2019-01-13T04:12:04.905Z,7.50
2019-01-13T04:14:31.115Z,7.87
2019-01-13T04:16:57.759Z,7.77
2019-01-13T04:19:23.970Z,7.50
2019-01-13T04:21:50.210Z,7.27
2019-01-13T04:24:16.541Z,7.17
2019-01-13T04:26:42.764Z,6.97
2019-01-13T04:29:08.999Z,7.23
2019-01-13T04:31:35.269Z,6.73
2019-01-13T04:34:01.478Z,6.60
2019-01-13T04:36:27.695Z,5.97
2019-01-13T04:38:53.922Z,6.50
2019-01-13T04:41:20.147Z,5.50
2019-01-13T04:43:46.409Z,6.07
2019-01-13T04:46:12.616Z,5.90
2019-01-13T04:48:38.835Z,5.67
2019-01-13T04:51:05.039Z,5.23
2019-01-13T04:53:31.287Z,6.47
2019-01-13T04:55:57.487Z,5.70
2019-01-13T04:58:23.690Z,6.37
2019-01-13T05:00:49.905Z,6.13
2019-01-13T05:03:16.107Z,6.50
2019-01-13T05:05:42.326Z,6.30
2019-01-13T05:08:08.569Z,6.50
2019-01-13T05:10:34.795Z,6.50
2019-01-13T05:13:01.275Z,6.13
2019-01-13T05:15:36.146Z,6.60
2019-01-13T05:18:02.451Z,7.50
2019-01-13T05:20:29.031Z,7.93
2019-01-13T05:22:56.702Z,7.80
2019-01-13T05:25:23.154Z,7.47
2019-01-13T05:27:49.363Z,8.17
2019-01-13T05:30:20.015Z,8.13
2019-01-13T05:32:46.618Z,8.73
2019-01-13T05:35:13.042Z,10.60
2019-01-13T05:37:39.238Z,8.80
2019-01-13T05:40:09.270Z,9.57
2019-01-13T05:42:35.466Z,9.70
2019-01-13T05:45:01.872Z,9.10
2019-01-13T05:47:28.090Z,8.43
2019-01-13T05:49:54.285Z,8.03
2019-01-13T05:52:20.511Z,8.77
2019-01-13T05:54:47.089Z,8.37
2019-01-13T05:57:13.467Z,9.33
2019-01-13T05:59:39.670Z,9.30
2019-01-13T06:02:05.871Z,9.87
2019-01-13T06:04:32.094Z,10.47
2019-01-13T06:06:58.623Z,10.53
2019-01-13T06:09:24.829Z,10.07
2019-01-13T06:11:51.143Z,10.83
2019-01-13T06:14:17.357Z,10.90
2019-01-13T06:16:43.583Z,10.63
2019-01-13T06:19:09.806Z,10.40
2019-01-13T06:21:36.119Z,9.90
2019-01-13T06:24:02.334Z,9.70
2019-01-13T06:26:28.562Z,8.90
2019-01-13T06:28:54.778Z,7.83
2019-01-13T06:31:20.982Z,7.50
2019-01-13T06:33:47.202Z,6.57
2019-01-13T06:36:13.406Z,6.80
2019-01-13T06:38:39.626Z,7.07
2019-01-13T06:41:05.931Z,8.37
2019-01-13T06:43:32.350Z,7.63
2019-01-13T06:45:58.570Z,7.97
2019-01-13T06:48:24.786Z,7.87
2019-01-13T06:50:50.991Z,6.60
2019-01-13T06:53:17.248Z,6.63
2019-01-13T06:55:43.441Z,7.30
2019-01-13T06:58:10.018Z,6.10
2019-01-13T07:00:36.332Z,5.97
2019-01-13T07:03:02.954Z,5.77
2019-01-13T07:05:29.158Z,8.03
2019-01-13T07:07:55.566Z,5.60
2019-01-13T07:10:21.944Z,5.30
2019-01-13T07:12:48.753Z,5.40
2019-01-13T07:15:16.892Z,5.33
2019-01-13T07:17:43.304Z,5.33
2019-01-13T07:20:12.235Z,9.00
2019-01-13T07:22:38.439Z,5.37
2019-01-13T07:25:05.698Z,5.70
2019-01-13T07:27:31.912Z,5.73
2019-01-13T07:29:58.140Z,5.33
2019-01-13T07:32:24.338Z,6.10
2019-01-13T07:34:50.561Z,9.83
2019-01-13T07:37:16.787Z,5.43
2019-01-13T07:39:42.986Z,4.90
2019-01-13T07:42:09.206Z,4.83
2019-01-13T07:44:35.434Z,4.70
2019-01-13T07:47:01.668Z,4.50
2019-01-13T07:49:27.920Z,4.47
2019-01-13T07:51:54.138Z,4.40
2019-01-13T07:54:20.373Z,4.40
2019-01-13T07:56:46.598Z,4.70
2019-01-13T07:59:12.942Z,4.13
2019-01-13T08:01:39.246Z,3.77
2019-01-13T08:04:05.448Z,4.67
2019-01-13T08:06:31.678Z,4.57
2019-01-13T08:08:57.900Z,4.00
2019-01-13T08:11:24.123Z,4.20
2019-01-13T08:13:50.571Z,4.07
2019-01-13T08:16:16.790Z,3.73
2019-01-13T08:18:42.999Z,3.60
2019-01-13T08:21:09.198Z,3.90
2019-01-13T08:23:35.482Z,4.57
2019-01-13T08:26:01.792Z,3.80
2019-01-13T08:28:28.006Z,4.17
2019-01-13T08:30:54.205Z,4.40
2019-01-13T08:33:20.434Z,4.50
2019-01-13T08:35:46.967Z,4.10
2019-01-13T08:38:13.186Z,5.37
2019-01-13T08:40:39.381Z,4.83
2019-01-13T08:43:05.590Z,5.23
2019-01-13T08:45:31.842Z,5.30
2019-01-13T08:47:58.042Z,5.20
2019-01-13T08:50:24.581Z,7.07
2019-01-13T08:52:51.382Z,6.03
2019-01-13T08:55:18.166Z,7.87
2019-01-13T08:57:44.881Z,6.60
2019-01-13T09:00:19.990Z,7.40
2019-01-13T09:02:46.320Z,8.80
2019-01-13T09:05:12.634Z,7.90
2019-01-13T09:07:38.860Z,8.23
2019-01-13T09:10:08.878Z,8.13
2019-01-13T09:12:35.105Z,10.37
2019-01-13T09:15:01.507Z,16.93
2019-01-13T09:17:27.722Z,9.37
2019-01-13T09:19:53.930Z,11.57
2019-01-13T09:22:20.158Z,8.60
2019-01-13T09:24:46.362Z,10.10
2019-01-13T09:27:12.590Z,9.70
2019-01-13T09:29:42.543Z,11.90
2019-01-13T09:32:07.098Z,10.10
2019-01-13T09:34:33.470Z,11.03
2019-01-13T09:37:00.014Z,12.80
2019-01-13T09:39:26.371Z,11.80
2019-01-13T09:41:52.586Z,13.23
2019-01-13T09:44:18.895Z,12.40
2019-01-13T09:46:45.355Z,13.30
2019-01-13T09:49:11.883Z,14.47
2019-01-13T09:51:38.154Z,13.27
2019-01-13T09:54:04.425Z,14.50
2019-01-13T09:56:30.651Z,15.23
2019-01-13T09:58:56.854Z,15.53
2019-01-13T10:01:23.176Z,16.30
2019-01-13T10:03:49.387Z,18.43
2019-01-13T10:06:17.046Z,18.57
2019-01-13T10:08:43.522Z,18.17
2019-01-13T10:11:09.902Z,21.53
2019-01-13T10:13:36.109Z,20.43
2019-01-13T10:16:02.889Z,21.30
2019-01-13T10:18:29.210Z,25.43
2019-01-13T10:20:56.187Z,25.43
2019-01-13T10:23:22.542Z,22.50
2019-01-13T10:25:48.738Z,22.53
2019-01-13T10:28:15.035Z,24.03
2019-01-13T10:30:41.258Z,25.33
2019-01-13T10:33:07.454Z,27.33
2019-01-13T10:35:33.773Z,23.57
2019-01-13T10:37:59.977Z,27.80
2019-01-13T10:40:27.303Z,28.30
2019-01-13T10:42:54.307Z,27.83
2019-01-13T10:45:20.762Z,27.47
2019-01-13T10:47:47.062Z,29.23
2019-01-13T10:50:19.582Z,27.63
2019-01-13T10:52:45.999Z,25.23
2019-01-13T10:55:13.510Z,26.63
2019-01-13T10:57:39.719Z,24.90
2019-01-13T11:00:10.054Z,26.80
2019-01-13T11:02:36.366Z,24.57
2019-01-13T11:05:04.462Z,22.57
2019-01-13T11:07:30.694Z,36.20
2019-01-13T11:09:57.362Z,27.63
2019-01-13T11:12:43.556Z,24.77
2019-01-13T11:15:12.683Z,30.27
2019-01-13T11:17:38.899Z,28.57
2019-01-13T11:20:11.578Z,28.23
2019-01-13T11:22:37.835Z,27.07
2019-01-13T11:25:05.146Z,27.97
2019-01-13T11:27:31.510Z,26.70
2019-01-13T11:29:57.717Z,27.32
2019-01-13T11:32:24.000Z,29.70
2019-01-13T11:34:50.458Z,26.37
2019-01-13T11:37:16.838Z,27.07
2019-01-13T11:39:43.192Z,25.30
2019-01-13T11:42:09.405Z,24.50
2019-01-13T11:44:35.646Z,23.53
2019-01-13T11:47:01.912Z,24.83
2019-01-13T11:49:28.125Z,22.83
2019-01-13T11:51:54.334Z,20.23
2019-01-13T11:54:20.558Z,22.50
2019-01-13T11:56:46.791Z,18.37
2019-01-13T11:59:13.071Z,19.23
2019-01-13T12:01:39.275Z,17.67
2019-01-13T12:04:23.843Z,16.93
2019-01-13T12:06:50.134Z,15.70
2019-01-13T12:09:16.337Z,14.67
2019-01-13T12:11:42.693Z,16.53
2019-01-13T12:14:09.011Z,16.90
2019-01-13T12:16:37.896Z,14.57
2019-01-13T12:19:04.318Z,13.07
2019-01-13T12:21:30.529Z,11.33
2019-01-13T12:23:56.738Z,11.93
2019-01-13T12:26:23.146Z,10.93
2019-01-13T12:28:49.371Z,10.77
2019-01-13T12:31:15.792Z,8.57
2019-01-13T12:33:42.098Z,8.30
2019-01-13T12:36:08.407Z,8.30
2019-01-13T12:38:34.633Z,7.23
2019-01-13T12:41:00.839Z,7.70
2019-01-13T12:43:27.067Z,6.23
2019-01-13T12:45:53.422Z,6.33
2019-01-13T12:48:19.753Z,4.97
2019-01-13T12:50:46.379Z,4.60
2019-01-13T12:53:13.014Z,4.10
2019-01-13T12:55:39.630Z,4.87
2019-01-13T12:58:06.265Z,3.97
2019-01-13T13:00:32.883Z,3.90
2019-01-13T13:02:59.643Z,3.70
2019-01-13T13:05:26.252Z,3.70
2019-01-13T13:07:52.903Z,3.60
2019-01-13T13:10:21.322Z,3.60
2019-01-13T13:12:47.938Z,3.70
2019-01-13T13:15:14.570Z,3.63
2019-01-13T13:17:41.387Z,3.77
2019-01-13T13:20:09.922Z,3.63
2019-01-13T13:22:36.530Z,3.70
2019-01-13T13:25:04.062Z,3.57
2019-01-13T13:27:30.774Z,3.43
2019-01-13T13:29:57.458Z,3.13
2019-01-13T13:32:24.167Z,3.60
2019-01-13T13:34:50.931Z,3.10
2019-01-13T13:37:17.646Z,6.57
2019-01-13T13:39:44.274Z,3.77
2019-01-13T13:42:11.150Z,3.60
2019-01-13T13:44:37.746Z,3.40
2019-01-13T13:47:04.384Z,3.87
2019-01-13T13:49:31.054Z,3.40
2019-01-13T13:51:57.685Z,3.57
2019-01-13T13:54:24.303Z,3.77
2019-01-13T13:56:50.928Z,4.70
2019-01-13T13:59:17.546Z,5.07
2019-01-13T14:01:44.283Z,4.63
2019-01-13T14:04:10.946Z,4.77
2019-01-13T14:06:37.590Z,4.67
2019-01-13T14:09:05.714Z,5.10
2019-01-13T14:11:32.334Z,5.63
2019-01-13T14:13:59.202Z,5.27
2019-01-13T14:16:25.826Z,5.23
2019-01-13T14:18:52.451Z,4.63
2019-01-13T14:21:19.087Z,5.40
2019-01-13T14:23:45.702Z,29.67
2019-01-13T14:26:12.626Z,4.50
2019-01-13T14:28:39.238Z,4.20
2019-01-13T14:31:06.094Z,4.37
2019-01-13T14:33:32.829Z,4.40
2019-01-13T14:35:59.489Z,4.30
2019-01-13T14:38:26.178Z,4.50
2019-01-13T14:40:52.811Z,4.30
2019-01-13T14:43:19.426Z,4.67
2019-01-13T14:45:46.046Z,4.77
2019-01-13T14:48:12.695Z,3.87
2019-01-13T14:50:39.808Z,3.70
2019-01-13T14:53:06.760Z,3.53
2019-01-13T14:55:33.574Z,3.50
2019-01-13T14:58:00.418Z,3.80
2019-01-13T15:00:29.418Z,3.87
2019-01-13T15:02:56.469Z,4.20
2019-01-13T15:05:23.222Z,4.50
2019-01-13T15:07:49.966Z,4.53
2019-01-13T15:10:17.574Z,4.80
2019-01-13T15:12:44.202Z,12.70
2019-01-13T15:15:12.230Z,4.63
2019-01-13T15:17:38.973Z,4.47
2019-01-13T15:20:07.574Z,4.60
2019-01-13T15:22:34.210Z,4.67
2019-01-13T15:25:00.830Z,4.50
2019-01-13T15:27:27.457Z,4.93
2019-01-13T15:29:54.333Z,5.17
2019-01-13T15:32:20.974Z,5.10
2019-01-13T15:34:47.592Z,5.13
2019-01-13T15:37:14.226Z,5.33
2019-01-13T15:39:40.843Z,5.47
2019-01-13T15:42:07.574Z,5.80
2019-01-13T15:44:34.186Z,5.83
2019-01-13T15:47:00.831Z,5.17
2019-01-13T15:49:27.463Z,5.80
2019-01-13T15:51:54.094Z,4.93
2019-01-13T15:54:20.730Z,5.30
2019-01-13T15:56:47.679Z,5.30
2019-01-13T15:59:14.314Z,5.10
2019-01-13T16:01:40.952Z,4.87
2019-01-13T16:04:14.313Z,5.13
2019-01-13T16:06:36.124Z,5.20
2019-01-13T16:09:06.555Z,5.17
2019-01-13T16:11:33.250Z,5.00
2019-01-13T16:13:59.882Z,5.97
2019-01-13T16:16:26.522Z,6.03
2019-01-13T16:18:53.138Z,7.00
2019-01-13T16:21:19.778Z,7.17
2019-01-13T16:23:46.630Z,6.63
2019-01-13T16:26:13.251Z,7.00
2019-01-13T16:28:39.884Z,7.30
2019-01-13T16:31:06.494Z,8.30
2019-01-13T16:33:33.132Z,9.23
2019-01-13T16:35:59.746Z,9.80
2019-01-13T16:38:26.542Z,62.60
2019-01-13T16:40:53.166Z,9.43
2019-01-13T16:43:19.790Z,9.80
2019-01-13T16:45:47.385Z,11.27
2019-01-13T16:48:14.019Z,9.60
2019-01-13T16:50:40.634Z,9.37
2019-01-13T16:53:07.319Z,12.10
2019-01-13T16:55:34.375Z,9.30
2019-01-13T16:58:00.986Z,9.07
2019-01-13T17:00:27.809Z,9.33
2019-01-13T17:02:54.435Z,10.40
2019-01-13T17:05:21.661Z,12.40
2019-01-13T17:07:48.482Z,8.67
2019-01-13T17:10:16.110Z,9.00
2019-01-13T17:12:43.522Z,13.03
2019-01-13T17:15:11.563Z,9.00
2019-01-13T17:17:38.239Z,10.57
2019-01-13T17:20:06.807Z,9.87
2019-01-13T17:22:33.417Z,11.27
2019-01-13T17:25:00.183Z,10.27
2019-01-13T17:27:26.870Z,11.47
2019-01-13T17:29:53.507Z,11.30
2019-01-13T17:32:20.117Z,9.63
2019-01-13T17:34:46.770Z,10.83
2019-01-13T17:37:13.446Z,9.70
2019-01-13T17:39:40.066Z,9.30
2019-01-13T17:42:06.709Z,9.60
2019-01-13T17:44:33.335Z,9.17
2019-01-13T17:47:00.004Z,9.83
2019-01-13T17:49:26.606Z,12.77
2019-01-13T17:51:53.243Z,9.50
2019-01-13T17:54:19.854Z,9.77
2019-01-13T17:56:46.558Z,11.03
2019-01-13T17:59:13.171Z,8.90
2019-01-13T18:01:39.817Z,10.27
2019-01-13T18:04:06.430Z,9.53
2019-01-13T18:06:33.082Z,12.77
2019-01-13T18:08:59.690Z,11.67
2019-01-13T18:11:26.322Z,11.40
2019-01-13T18:13:52.942Z,11.77
2019-01-13T18:16:19.574Z,12.40
2019-01-13T18:18:46.191Z,12.07
2019-01-13T18:21:12.815Z,9.80
2019-01-13T18:23:59.331Z,10.70
2019-01-13T18:26:26.055Z,9.27
2019-01-13T18:28:52.686Z,10.37
2019-01-13T18:31:19.303Z,14.23
2019-01-13T18:33:45.935Z,7.77
2019-01-13T18:36:12.542Z,8.20
2019-01-13T18:38:39.180Z,6.20
2019-01-13T18:41:05.806Z,6.83
2019-01-13T18:43:32.450Z,6.97
2019-01-13T18:45:59.166Z,6.80
2019-01-13T18:48:25.819Z,5.53
2019-01-13T18:50:52.436Z,5.80
2019-01-13T18:53:19.062Z,5.87
2019-01-13T18:55:45.679Z,3.20
2019-01-13T18:58:12.302Z,4.30
2019-01-13T19:00:38.516Z,10.17
2019-01-13T19:03:05.436Z,9.80
2019-01-13T19:05:32.045Z,12.13
2019-01-13T19:07:58.653Z,9.20
2019-01-13T19:10:34.257Z,8.73
2019-01-13T19:13:10.554Z,12.40
2019-01-13T19:15:36.779Z,11.60
2019-01-13T19:18:02.980Z,9.37
2019-01-13T19:20:30.193Z,10.37
2019-01-13T19:22:56.405Z,10.60
2019-01-13T19:25:24.726Z,8.93
2019-01-13T19:27:50.936Z,9.47
2019-01-13T19:30:17.364Z,10.03
2019-01-13T19:32:43.707Z,7.73
2019-01-13T19:35:12.815Z,7.27
2019-01-13T19:37:41.213Z,5.50
2019-01-13T19:40:09.666Z,4.07
2019-01-13T19:42:35.940Z,5.50
2019-01-13T19:45:04.454Z,4.57
2019-01-13T19:47:31.035Z,5.27
2019-01-13T19:49:57.239Z,4.87
2019-01-13T19:52:23.818Z,3.83
2019-01-13T19:54:50.014Z,2.13
2019-01-13T19:57:16.258Z,3.70
2019-01-13T19:59:42.457Z,3.07
2019-01-13T20:02:08.664Z,4.63
2019-01-13T20:04:35.086Z,4.90
2019-01-13T20:07:01.671Z,2.83
2019-01-13T20:09:28.059Z,2.40
2019-01-13T20:11:54.358Z,4.73
2019-01-13T20:14:20.586Z,3.53
2019-01-13T20:16:46.787Z,4.50
2019-01-13T20:19:13.011Z,3.60
2019-01-13T20:21:39.270Z,2.93
2019-01-13T20:24:05.482Z,2.97
2019-01-13T20:26:31.899Z,4.10
2019-01-13T20:28:58.123Z,3.83
2019-01-13T20:31:24.320Z,3.87
2019-01-13T20:33:50.763Z,3.90
2019-01-13T20:36:17.005Z,2.17
2019-01-13T20:38:43.213Z,2.93
2019-01-13T20:41:09.438Z,3.67
2019-01-13T20:43:35.652Z,3.73
2019-01-13T20:46:02.075Z,1.57
2019-01-13T20:48:28.278Z,3.80
2019-01-13T20:50:54.494Z,4.33
2019-01-13T20:53:21.014Z,6.70
2019-01-13T20:55:47.412Z,3.87
2019-01-13T20:58:13.680Z,5.17
2019-01-13T21:00:39.878Z,5.73
2019-01-13T21:03:06.095Z,7.50
2019-01-13T21:05:32.293Z,8.57
2019-01-13T21:07:58.522Z,6.07
2019-01-13T21:10:24.831Z,6.77
2019-01-13T21:12:51.146Z,12.53
2019-01-13T21:15:27.202Z,7.20
2019-01-13T21:17:57.407Z,4.23
2019-01-13T21:20:21.917Z,8.27
2019-01-13T21:22:48.756Z,8.20
2019-01-13T21:25:16.064Z,9.20
2019-01-13T21:27:42.694Z,9.43
2019-01-13T21:30:18.728Z,8.63
2019-01-13T21:32:44.938Z,11.97
2019-01-13T21:35:11.577Z,10.67
2019-01-13T21:37:37.805Z,9.37
2019-01-13T21:40:07.610Z,10.30
2019-01-13T21:42:33.829Z,8.63
2019-01-13T21:45:00.085Z,6.87
2019-01-13T21:47:26.461Z,8.50
2019-01-13T21:49:53.048Z,12.00
2019-01-13T21:52:19.243Z,10.43
2019-01-13T21:54:45.467Z,12.67
2019-01-13T21:57:11.670Z,8.10
2019-01-13T21:59:37.926Z,11.40
2019-01-13T22:02:04.225Z,9.23
2019-01-13T22:04:31.233Z,10.23
2019-01-13T22:06:57.635Z,16.93
2019-01-13T22:09:23.862Z,11.47
2019-01-13T22:11:50.058Z,8.37
2019-01-13T22:14:16.314Z,11.63
2019-01-13T22:16:42.619Z,11.27
2019-01-13T22:19:08.834Z,10.63
2019-01-13T22:21:35.039Z,8.53
2019-01-13T22:24:01.255Z,12.70
2019-01-13T22:26:27.460Z,12.97
2019-01-13T22:29:02.810Z,10.90
2019-01-13T22:31:29.003Z,13.47
2019-01-13T22:33:55.215Z,13.70
2019-01-13T22:36:21.574Z,12.17
2019-01-13T22:38:47.863Z,8.83
2019-01-13T22:41:14.290Z,7.23
2019-01-13T22:43:40.515Z,10.03
2019-01-13T22:46:06.735Z,12.13
2019-01-13T22:48:32.929Z,9.03
2019-01-13T22:50:59.147Z,8.30
2019-01-13T22:53:25.353Z,12.00
2019-01-13T22:55:51.571Z,15.60
2019-01-13T22:58:17.818Z,13.73
2019-01-13T23:00:58.727Z,16.90
2019-01-13T23:03:24.947Z,13.93
2019-01-13T23:05:57.298Z,10.77
2019-01-13T23:08:23.507Z,16.30
2019-01-13T23:10:49.730Z,11.47
2019-01-13T23:13:15.940Z,15.03
2019-01-13T23:15:42.318Z,19.57
2019-01-13T23:18:08.634Z,15.60
2019-01-13T23:20:35.124Z,10.13
2019-01-13T23:23:01.337Z,13.47
2019-01-13T23:25:27.542Z,17.40
2019-01-13T23:27:53.770Z,16.97
2019-01-13T23:30:19.971Z,17.30
2019-01-13T23:32:46.303Z,16.63
2019-01-13T23:35:12.617Z,16.73
2019-01-13T23:37:38.863Z,17.23
2019-01-13T23:40:06.037Z,13.10
2019-01-13T23:42:32.365Z,12.60
2019-01-13T23:44:58.654Z,15.93
2019-01-13T23:47:24.874Z,18.07
2019-01-13T23:49:51.382Z,14.17
2019-01-13T23:52:17.614Z,20.30
2019-01-13T23:54:43.825Z,12.70
2019-01-13T23:57:10.066Z,17.50
2019-01-13T23:59:36.295Z,14.43
